createdAt,value
2018-05-11T00:03:45.060Z,101090.19
2018-05-11T00:08:36.090Z,101094.41
2018-05-11T00:13:27.104Z,101111.88
2018-05-11T00:18:18.861Z,101131.23
2018-05-11T00:23:09.888Z,101139.22
2018-05-11T00:28:00.909Z,101138.38
2018-05-11T00:32:51.927Z,101148.07
2018-05-11T00:37:42.933Z,101155.97
2018-05-11T00:42:34.776Z,101164.62
2018-05-11T00:47:26.527Z,101161.92
2018-05-11T00:52:17.543Z,101171.98
2018-05-11T00:57:08.580Z,101184.48
2018-05-11T01:01:59.639Z,101196.18
2018-05-11T01:06:50.668Z,101206.90
2018-05-11T01:11:41.687Z,101219.23
2018-05-11T01:16:32.701Z,101239.58
2018-05-11T01:21:23.727Z,101242.18
2018-05-11T01:26:14.740Z,101245.03
2018-05-11T01:31:05.768Z,101252.34
2018-05-11T01:35:56.805Z,101264.23
2018-05-11T01:40:47.843Z,101260.61
2018-05-11T01:45:38.919Z,101267.02
2018-05-11T01:50:29.955Z,101266.87
2018-05-11T01:55:20.971Z,101264.02
2018-05-11T02:00:11.957Z,101280.25
2018-05-11T02:05:03.704Z,101278.86
2018-05-11T02:09:54.747Z,101291.77
2018-05-11T02:14:52.651Z,101295.01
2018-05-11T02:19:43.728Z,101307.42
2018-05-11T02:24:35.492Z,101301.38
2018-05-11T02:29:26.539Z,101305.46
2018-05-11T02:34:17.576Z,101308.05
2018-05-11T02:39:08.610Z,101313.72
2018-05-11T02:43:59.680Z,101315.95
2018-05-11T02:48:50.711Z,101314.97
2018-05-11T02:53:41.723Z,101320.16
2018-05-11T02:58:32.758Z,101324.02
2018-05-11T03:03:23.758Z,101329.34
2018-05-11T03:08:15.552Z,101343.54
2018-05-11T03:13:06.563Z,101347.27
2018-05-11T03:17:57.587Z,101356.34
2018-05-11T03:22:48.601Z,101367.19
2018-05-11T03:27:39.625Z,101379.30
2018-05-11T03:32:30.669Z,101380.78
2018-05-11T03:37:21.700Z,101383.95
2018-05-11T03:42:12.740Z,101391.48
2018-05-11T03:47:03.781Z,101395.06
2018-05-11T03:51:55.564Z,101396.96
2018-05-11T03:56:46.609Z,101396.22
2018-05-11T04:01:56.383Z,101397.77
2018-05-11T04:07:06.265Z,101398.67
2018-05-11T04:11:58.066Z,101398.84
2018-05-11T04:16:49.075Z,101403.00
2018-05-11T04:21:40.103Z,101408.68
2018-05-11T04:26:31.152Z,101416.09
2018-05-11T04:31:22.165Z,101409.55
2018-05-11T04:36:13.182Z,101412.55
2018-05-11T04:41:04.219Z,101414.16
2018-05-11T04:45:55.241Z,101420.70
2018-05-11T04:50:46.256Z,101420.74
2018-05-11T04:55:37.283Z,101420.53
2018-05-11T05:00:28.312Z,101429.12
2018-05-11T05:05:19.396Z,101432.84
2018-05-11T05:10:10.429Z,101445.02
2018-05-11T05:15:01.461Z,101441.84
2018-05-11T05:19:52.468Z,101447.86
2018-05-11T05:24:43.474Z,101447.09
2018-05-11T05:29:34.548Z,101461.88
2018-05-11T05:34:25.605Z,101453.14
2018-05-11T05:39:17.482Z,101460.19
2018-05-11T05:44:09.219Z,101464.41
2018-05-11T05:49:00.278Z,101468.84
2018-05-11T05:53:51.307Z,101466.75
2018-05-11T05:58:42.318Z,101470.52
2018-05-11T06:03:34.123Z,101475.17
2018-05-11T06:08:25.196Z,101489.90
2018-05-11T06:13:16.216Z,101494.44
2018-05-11T06:18:07.228Z,101497.98
2018-05-11T06:22:58.227Z,101508.34
2018-05-11T06:27:49.251Z,101510.58
2018-05-11T06:32:40.289Z,101511.34
2018-05-11T06:37:31.338Z,101514.64
2018-05-11T06:42:22.451Z,101516.41
2018-05-11T06:47:13.468Z,101520.56
2018-05-11T06:52:05.348Z,101521.95
2018-05-11T06:56:57.103Z,101524.25
2018-05-11T07:01:48.147Z,101525.68
2018-05-11T07:06:39.196Z,101519.08
2018-05-11T07:11:30.241Z,101523.95
2018-05-11T07:16:21.249Z,101529.97
2018-05-11T07:21:13.767Z,101530.70
2018-05-11T07:26:05.553Z,101536.64
2018-05-11T07:30:56.601Z,101538.94
2018-05-11T07:35:48.397Z,101540.38
2018-05-11T07:40:39.544Z,101546.03
2018-05-11T07:45:30.553Z,101547.98
2018-05-11T07:50:21.578Z,101549.03
2018-05-11T07:55:12.607Z,101556.79
2018-05-11T08:00:03.706Z,101561.20
2018-05-11T08:04:54.747Z,101564.34
2018-05-11T08:09:45.789Z,101560.70
2018-05-11T08:14:36.816Z,101565.04
2018-05-11T08:19:28.602Z,101570.45
2018-05-11T08:24:19.671Z,101564.74
2018-05-11T08:29:10.730Z,101565.83
2018-05-11T08:34:01.743Z,101563.61
2018-05-11T08:38:53.533Z,101572.43
2018-05-11T08:43:44.626Z,101570.33
2018-05-11T08:48:35.778Z,101577.29
2018-05-11T08:53:26.800Z,101570.17
2018-05-11T08:58:17.837Z,101566.67
2018-05-11T09:03:08.891Z,101569.16
2018-05-11T09:08:00.660Z,101579.77
2018-05-11T09:12:51.682Z,101581.82
2018-05-11T09:17:42.698Z,101590.73
2018-05-11T09:22:33.741Z,101595.34
2018-05-11T09:27:24.779Z,101603.18
2018-05-11T09:32:15.817Z,101598.34
2018-05-11T09:37:06.904Z,101598.80
2018-05-11T09:41:57.941Z,101595.79
2018-05-11T09:46:49.002Z,101598.77
2018-05-11T09:51:40.043Z,101610.31
2018-05-11T09:56:31.826Z,101611.06
2018-05-11T10:01:22.858Z,101614.72
2018-05-11T10:06:13.868Z,101614.27
2018-05-11T10:11:04.909Z,101614.38
2018-05-11T10:15:55.932Z,101607.81
2018-05-11T10:20:47.158Z,101608.20
2018-05-11T10:25:38.094Z,101611.99
2018-05-11T10:30:29.142Z,101609.66
2018-05-11T10:35:20.893Z,101610.45
2018-05-11T10:40:12.647Z,101610.92
2018-05-11T10:45:03.664Z,101615.61
2018-05-11T10:49:54.757Z,101620.27
2018-05-11T10:54:45.797Z,101623.79
2018-05-11T10:59:37.609Z,101627.97
2018-05-11T11:04:28.687Z,101635.42
2018-05-11T11:09:19.732Z,101642.32
2018-05-11T11:14:10.743Z,101635.13
2018-05-11T11:19:08.647Z,101636.05
2018-05-11T11:23:59.763Z,101627.27
2018-05-11T11:28:50.795Z,101620.65
2018-05-11T11:33:41.867Z,101618.88
2018-05-11T11:38:33.620Z,101621.16
2018-05-11T11:43:24.756Z,101618.02
2018-05-11T11:48:15.788Z,101631.52
2018-05-11T11:53:06.866Z,101625.85
2018-05-11T11:57:58.648Z,101629.15
2018-05-11T12:02:49.748Z,101615.71
2018-05-11T12:07:40.801Z,101624.14
2018-05-11T12:12:31.827Z,101620.40
2018-05-11T12:17:22.876Z,101614.47
2018-05-11T12:22:13.913Z,101623.22
2018-05-11T12:27:04.997Z,101627.47
2018-05-11T12:31:56.022Z,101623.25
2018-05-11T12:36:47.044Z,101619.83
2018-05-11T12:41:38.069Z,101625.55
2018-05-11T12:46:29.141Z,101625.91
2018-05-11T12:51:20.923Z,101626.11
2018-05-11T12:56:11.939Z,101631.80
2018-05-11T13:01:02.952Z,101628.05
2018-05-11T13:05:53.960Z,101627.19
2018-05-11T13:10:44.998Z,101617.39
2018-05-11T13:15:36.064Z,101614.65
2018-05-11T13:20:27.140Z,101611.99
2018-05-11T13:25:18.867Z,101615.85
2018-05-11T13:30:10.670Z,101618.08
2018-05-11T13:35:01.795Z,101613.33
2018-05-11T13:39:52.880Z,101621.98
2018-05-11T13:44:43.908Z,101611.81
2018-05-11T13:49:34.940Z,101613.62
2018-05-11T13:54:25.993Z,101618.41
2018-05-11T13:59:17.049Z,101612.00
2018-05-11T14:04:08.817Z,101603.67
2018-05-11T14:08:59.887Z,101605.09
2018-05-11T14:13:50.908Z,101599.13
2018-05-11T14:18:41.949Z,101594.83
2018-05-11T14:23:33.699Z,101584.52
2018-05-11T14:28:25.467Z,101587.94
2018-05-11T14:33:16.517Z,101585.08
2018-05-11T14:38:07.541Z,101581.17
2018-05-11T14:42:58.563Z,101575.88
2018-05-11T14:47:49.650Z,101577.50
2018-05-11T14:52:40.643Z,101577.12
2018-05-11T14:57:32.525Z,101582.03
2018-05-11T15:02:23.725Z,101585.69
2018-05-11T15:07:15.502Z,101579.15
2018-05-11T15:12:06.537Z,101573.83
2018-05-11T15:16:57.545Z,101564.10
2018-05-11T15:21:48.567Z,101561.99
2018-05-11T15:26:39.657Z,101559.13
2018-05-11T15:31:30.672Z,101556.94
2018-05-11T15:36:22.431Z,101548.77
2018-05-11T15:41:13.466Z,101547.83
2018-05-11T15:46:04.564Z,101542.36
2018-05-11T15:51:03.422Z,101544.11
2018-05-11T15:55:54.475Z,101540.52
2018-05-11T16:00:45.525Z,101541.93
2018-05-11T16:05:36.606Z,101543.70
2018-05-11T16:10:27.635Z,101543.70
2018-05-11T16:15:18.641Z,101543.97
2018-05-11T16:20:11.153Z,101543.44
2018-05-11T16:25:02.155Z,101542.23
2018-05-11T16:29:53.998Z,101539.09
2018-05-11T16:34:45.047Z,101541.36
2018-05-11T16:39:36.143Z,101546.37
2018-05-11T16:44:27.155Z,101538.58
2018-05-11T16:49:18.173Z,101541.78
2018-05-11T16:54:09.252Z,101545.74
2018-05-11T16:59:00.942Z,101536.97
2018-05-11T17:03:52.723Z,101542.23
2018-05-11T17:08:43.754Z,101544.80
2018-05-11T17:13:34.814Z,101547.33
2018-05-11T17:18:25.843Z,101546.67
2018-05-11T17:23:16.883Z,101547.78
2018-05-11T17:28:08.632Z,101546.95
2018-05-11T17:33:00.437Z,101545.18
2018-05-11T17:37:51.460Z,101543.94
2018-05-11T17:42:42.488Z,101542.90
2018-05-11T17:47:33.541Z,101541.53
2018-05-11T17:52:25.301Z,101542.86
2018-05-11T17:57:16.358Z,101545.47
2018-05-11T18:02:07.393Z,101545.59
2018-05-11T18:06:58.407Z,101547.05
2018-05-11T18:11:49.416Z,101548.25
2018-05-11T18:16:40.444Z,101550.56
2018-05-11T18:21:31.471Z,101553.41
2018-05-11T18:26:22.566Z,101554.45
2018-05-11T18:31:13.584Z,101552.08
2018-05-11T18:36:04.635Z,101556.88
2018-05-11T18:40:55.652Z,101555.98
2018-05-11T18:45:46.687Z,101556.69
2018-05-11T18:50:37.768Z,101560.58
2018-05-11T18:55:28.814Z,101571.92
2018-05-11T19:00:19.904Z,101569.25
2018-05-11T19:05:11.665Z,101581.66
2018-05-11T19:10:02.813Z,101582.06
2018-05-11T19:14:53.841Z,101587.16
2018-05-11T19:19:44.893Z,101593.75
2018-05-11T19:24:35.912Z,101602.93
2018-05-11T19:29:27.725Z,101604.73
2018-05-11T19:34:18.747Z,101614.21
2018-05-11T19:39:09.832Z,101620.59
2018-05-11T19:44:00.880Z,101624.33
2018-05-11T19:48:53.098Z,101626.57
2018-05-11T19:53:44.119Z,101627.18
2018-05-11T19:58:35.878Z,101629.68
2018-05-11T20:03:27.327Z,101627.43
2018-05-11T20:08:18.372Z,101626.92
2018-05-11T20:13:09.405Z,101626.69
2018-05-11T20:18:00.433Z,101622.25
2018-05-11T20:22:52.188Z,101620.46
2018-05-11T20:27:43.199Z,101616.84
2018-05-11T20:32:34.289Z,101616.21
2018-05-11T20:37:25.995Z,101611.55
2018-05-11T20:42:17.824Z,101610.66
2018-05-11T20:47:08.918Z,101617.75
2018-05-11T20:52:00.031Z,101615.25
2018-05-11T20:56:51.067Z,101628.02
2018-05-11T21:01:42.097Z,101627.23
2018-05-11T21:06:33.135Z,101635.09
2018-05-11T21:11:24.152Z,101637.20
2018-05-11T21:16:15.183Z,101638.56
2018-05-11T21:21:06.935Z,101636.06
2018-05-11T21:25:58.704Z,101629.27
2018-05-11T21:30:49.765Z,101628.25
2018-05-11T21:35:40.777Z,101634.38
2018-05-11T21:40:31.796Z,101622.64
2018-05-11T21:45:22.888Z,101616.59
2018-05-11T21:50:13.920Z,101618.24
2018-05-11T21:55:04.984Z,101619.22
2018-05-11T21:59:56.000Z,101621.27
2018-05-11T22:04:47.066Z,101615.46
2018-05-11T22:09:38.841Z,101614.59
2018-05-11T22:14:29.916Z,101610.38
2018-05-11T22:19:20.921Z,101605.12
2018-05-11T22:29:02.964Z,101588.21
2018-05-11T22:33:54.817Z,101585.94
2018-05-11T22:38:45.863Z,101578.38
2018-05-11T22:43:37.674Z,101572.68
2018-05-11T22:48:28.739Z,101574.50
2018-05-11T22:53:19.866Z,101576.05
2018-05-11T22:58:10.890Z,101571.97
2018-05-11T23:03:01.906Z,101565.84
2018-05-11T23:07:52.932Z,101563.21
2018-05-11T23:12:43.977Z,101566.80
2018-05-11T23:17:35.059Z,101560.38
2018-05-11T23:22:26.805Z,101567.31
2018-05-11T23:27:18.599Z,101564.27
2018-05-11T23:32:09.639Z,101564.77
2018-05-11T23:37:00.668Z,101568.20
2018-05-11T23:41:51.672Z,101572.31
2018-05-11T23:46:42.710Z,101572.36
2018-05-11T23:51:33.751Z,101573.67
2018-05-11T23:56:25.613Z,101578.54
